Time;durP1;ratioP1;P1;durP2;ratioP2;P2;SDS_P1;SDS_P2;PMS_P1;PMS_P2;Temp;Humidity;BMP_temperature;BMP_pressure;BME280_temperature;BME280_humidity;BME280_pressure;Samples;Min_cycle;Max_cycle;Signal;HPM_P1;HPM_P2
2024/04/04 00:02:09;;;;;;;0.73;0.73;;;;;;;;;;4985625;28;20438;-76
2024/04/04 00:04:35;;;;;;;0.80;0.80;;;;;;;;;;4983656;28;20208;-75
2024/04/04 00:07:01;;;;;;;0.80;0.80;;;;;;;;;;4981291;28;20815;-77
2024/04/04 00:09:26;;;;;;;0.70;0.70;;;;;;;;;;4984280;28;20324;-76
2024/04/04 00:11:54;;;;;;;0.70;0.70;;;;;;;;;;4982492;28;20208;-76
2024/04/04 00:14:20;;;;;;;0.70;0.70;;;;;;;;;;4985903;28;20197;-75
2024/04/04 00:16:46;;;;;;;0.70;0.70;;;;;;;;;;4983038;28;20228;-76
2024/04/04 00:19:12;;;;;;;0.80;0.80;;;;;;;;;;4980856;28;20213;-76
2024/04/04 00:21:38;;;;;;;0.70;0.70;;;;;;;;;;4983328;28;20223;-77
2024/04/04 00:24:04;;;;;;;1.73;1.73;;;;;;;;;;4985015;28;20733;-76
2024/04/04 00:26:30;;;;;;;0.70;0.70;;;;;;;;;;4983365;28;20202;-75
2024/04/04 00:28:57;;;;;;;0.70;0.70;;;;;;;;;;4985139;28;20217;-76
2024/04/04 00:31:23;;;;;;;0.70;0.70;;;;;;;;;;4981396;28;20213;-76
2024/04/04 00:33:49;;;;;;;0.80;0.80;;;;;;;;;;4981987;28;20855;-76
2024/04/04 00:36:15;;;;;;;0.70;0.70;;;;;;;;;;4980242;28;20687;-76
2024/04/04 00:38:40;;;;;;;0.70;0.70;;;;;;;;;;4983975;28;20236;-76
2024/04/04 00:41:07;;;;;;;0.70;0.70;;;;;;;;;;4981532;28;20645;-76
2024/04/04 00:43:34;;;;;;;0.70;0.70;;;;;;;;;;4982284;28;20223;-75
2024/04/04 00:46:04;;;;;;;0.63;0.63;;;;;;;;;;4982064;28;20496;-76
2024/04/04 00:48:29;;;;;;;0.70;0.70;;;;;;;;;;4992968;28;20744;-77
2024/04/04 00:50:56;;;;;;;0.70;0.70;;;;;;;;;;4978870;28;20206;-76
2024/04/04 00:53:23;;;;;;;0.95;0.95;;;;;;;;;;4979731;28;20209;-75
2024/04/04 00:55:49;;;;;;;0.80;0.80;;;;;;;;;;4978753;28;20209;-76
2024/04/04 00:58:15;;;;;;;0.60;0.60;;;;;;;;;;4976953;28;20241;-76
2024/04/04 01:00:41;;;;;;;0.73;0.73;;;;;;;;;;4979610;28;20670;-76
2024/04/04 01:03:08;;;;;;;0.68;0.68;;;;;;;;;;4978250;28;21571;-76
2024/04/04 01:05:35;;;;;;;0.70;0.70;;;;;;;;;;4976196;28;20599;-76
2024/04/04 01:08:00;;;;;;;0.60;0.60;;;;;;;;;;4981241;28;20205;-75
2024/04/04 01:10:27;;;;;;;0.70;0.70;;;;;;;;;;4979309;28;20217;-75
2024/04/04 01:12:52;;;;;;;0.70;0.70;;;;;;;;;;4977766;28;20210;-77
2024/04/04 01:15:18;;;;;;;0.70;0.70;;;;;;;;;;4978526;28;20619;-76
2024/04/04 01:17:44;;;;;;;0.70;0.70;;;;;;;;;;4977046;28;20235;-75
2024/04/04 01:20:12;;;;;;;0.70;0.70;;;;;;;;;;4977320;28;20599;-77
2024/04/04 01:22:37;;;;;;;0.70;0.70;;;;;;;;;;4979300;28;20233;-75
2024/04/04 01:25:07;;;;;;;0.70;0.70;;;;;;;;;;4978147;28;21148;-77
2024/04/04 01:27:33;;;;;;;0.70;0.70;;;;;;;;;;4979404;28;20689;-76
2024/04/04 01:29:59;;;;;;;0.70;0.70;;;;;;;;;;4980828;28;20205;-77
2024/04/04 01:32:25;;;;;;;0.65;0.65;;;;;;;;;;4979636;28;20866;-76
2024/04/04 01:34:51;;;;;;;0.70;0.70;;;;;;;;;;4977886;28;20209;-77
2024/04/04 01:37:16;;;;;;;0.70;0.70;;;;;;;;;;4981241;28;20209;-76
2024/04/04 01:39:43;;;;;;;0.70;0.70;;;;;;;;;;4979892;28;20197;-76
2024/04/04 01:42:10;;;;;;;0.80;0.80;;;;;;;;;;4977528;28;20209;-77
2024/04/04 01:44:36;;;;;;;0.70;0.70;;;;;;;;;;4991709;28;20571;-77
2024/04/04 01:47:01;;;;;;;0.80;0.80;;;;;;;;;;4980041;28;20213;-77
2024/04/04 01:49:28;;;;;;;0.70;0.70;;;;;;;;;;4980749;28;20209;-77
2024/04/04 01:51:53;;;;;;;0.70;0.70;;;;;;;;;;4981675;28;20521;-77
2024/04/04 01:54:21;;;;;;;0.75;0.75;;;;;;;;;;4981394;28;20573;-76
2024/04/04 01:56:46;;;;;;;0.70;0.70;;;;;;;;;;4978818;28;20214;-76
2024/04/04 01:59:14;;;;;;;0.70;0.70;;;;;;;;;;4981257;28;20806;-77
2024/04/04 02:01:40;;;;;;;1.20;1.20;;;;;;;;;;4982690;28;20216;-76
2024/04/04 02:04:06;;;;;;;0.70;0.70;;;;;;;;;;4977679;28;20565;-76
2024/04/04 02:06:31;;;;;;;0.73;0.73;;;;;;;;;;4979615;28;20435;-76
2024/04/04 02:08:58;;;;;;;0.70;0.70;;;;;;;;;;4980972;28;20672;-77
2024/04/04 02:11:24;;;;;;;0.70;0.70;;;;;;;;;;4987908;28;20216;-77
2024/04/04 02:13:50;;;;;;;0.70;0.70;;;;;;;;;;4981161;28;20555;-75
2024/04/04 02:16:17;;;;;;;0.70;0.70;;;;;;;;;;4980668;28;21300;-76
2024/04/04 02:18:44;;;;;;;0.70;0.70;;;;;;;;;;4980669;28;20244;-76
2024/04/04 02:21:09;;;;;;;0.70;0.70;;;;;;;;;;4978445;28;20565;-75
2024/04/04 02:23:36;;;;;;;0.70;0.70;;;;;;;;;;4977831;28;20233;-75
2024/04/04 02:26:01;;;;;;;0.70;0.70;;;;;;;;;;4981320;28;20210;-75
2024/04/04 02:28:27;;;;;;;0.70;0.70;;;;;;;;;;4982903;28;20860;-76
2024/04/04 02:30:53;;;;;;;0.70;0.70;;;;;;;;;;4981607;28;20216;-75
2024/04/04 02:33:21;;;;;;;0.70;0.70;;;;;;;;;;4980406;28;20201;-76
2024/04/04 02:35:53;;;;;;;0.70;0.70;;;;;;;;;;4981322;28;21281;-77
2024/04/04 02:38:19;;;;;;;0.70;0.70;;;;;;;;;;4979633;28;20968;-76
2024/04/04 02:40:44;;;;;;;0.70;0.70;;;;;;;;;;4978340;28;20219;-76
2024/04/04 02:43:11;;;;;;;0.70;0.70;;;;;;;;;;4990586;28;20229;-75
2024/04/04 02:45:36;;;;;;;0.70;0.70;;;;;;;;;;4981308;28;20209;-76
2024/04/04 02:48:03;;;;;;;0.70;0.70;;;;;;;;;;4978575;28;20566;-76
2024/04/04 02:50:29;;;;;;;0.73;0.73;;;;;;;;;;4978276;28;20288;-77
2024/04/04 02:52:56;;;;;;;0.70;0.70;;;;;;;;;;4978077;28;20209;-75
2024/04/04 02:55:21;;;;;;;0.70;0.70;;;;;;;;;;4983331;28;20213;-77
2024/04/04 02:57:47;;;;;;;0.80;0.80;;;;;;;;;;4978043;28;20608;-76
2024/04/04 03:00:14;;;;;;;0.70;0.70;;;;;;;;;;4980291;28;20216;-76
2024/04/04 03:02:40;;;;;;;0.75;0.75;;;;;;;;;;4986140;28;20687;-77
2024/04/04 03:05:06;;;;;;;0.70;0.70;;;;;;;;;;4978472;28;20643;-77
2024/04/04 03:07:34;;;;;;;0.70;0.70;;;;;;;;;;4980545;28;20217;-78
2024/04/04 03:09:59;;;;;;;0.70;0.70;;;;;;;;;;4982163;28;20236;-76
2024/04/04 03:12:26;;;;;;;0.70;0.70;;;;;;;;;;4979994;28;20628;-77
2024/04/04 03:14:51;;;;;;;0.73;0.73;;;;;;;;;;4980827;28;20539;-76
2024/04/04 03:17:18;;;;;;;0.70;0.70;;;;;;;;;;4982484;28;20682;-77
2024/04/04 03:19:43;;;;;;;0.70;0.70;;;;;;;;;;4983708;28;20228;-76
2024/04/04 03:22:10;;;;;;;0.73;0.73;;;;;;;;;;4982375;28;20213;-77
2024/04/04 03:24:37;;;;;;;0.70;0.70;;;;;;;;;;4984541;28;21135;-75
2024/04/04 03:27:03;;;;;;;0.80;0.80;;;;;;;;;;4982627;28;20554;-77
2024/04/04 03:29:28;;;;;;;0.70;0.70;;;;;;;;;;4983886;28;20240;-77
2024/04/04 03:31:55;;;;;;;0.80;0.80;;;;;;;;;;4982681;28;21347;-77
2024/04/04 03:34:20;;;;;;;0.70;0.70;;;;;;;;;;4983161;28;20206;-76
2024/04/04 03:36:48;;;;;;;0.70;0.70;;;;;;;;;;4983402;28;20510;-77
2024/04/04 03:39:14;;;;;;;0.70;0.70;;;;;;;;;;4985707;28;20570;-76
2024/04/04 03:41:42;;;;;;;0.77;0.77;;;;;;;;;;4985174;28;20220;-76
2024/04/04 03:44:09;;;;;;;0.73;0.73;;;;;;;;;;4994786;28;20225;-76
2024/04/04 03:46:34;;;;;;;0.70;0.70;;;;;;;;;;4983081;28;20918;-75
2024/04/04 03:49:01;;;;;;;0.60;0.60;;;;;;;;;;4982690;28;20217;-76
2024/04/04 03:51:27;;;;;;;1.38;1.38;;;;;;;;;;4976305;28;20610;-76
2024/04/04 03:53:53;;;;;;;0.80;0.80;;;;;;;;;;4976773;28;20206;-76
2024/04/04 03:56:19;;;;;;;0.70;0.70;;;;;;;;;;4979908;28;20212;-76
2024/04/04 03:58:46;;;;;;;0.80;0.80;;;;;;;;;;4979622;28;20574;-76
2024/04/04 04:01:12;;;;;;;0.70;0.70;;;;;;;;;;4979740;28;20291;-75
2024/04/04 04:03:38;;;;;;;0.70;0.70;;;;;;;;;;4981070;28;20238;-77
2024/04/04 04:06:04;;;;;;;0.70;0.70;;;;;;;;;;4981121;28;20737;-77
2024/04/04 04:08:30;;;;;;;0.80;0.80;;;;;;;;;;4979805;28;20245;-76
2024/04/04 04:10:56;;;;;;;0.70;0.70;;;;;;;;;;4983520;28;20347;-76
2024/04/04 04:13:22;;;;;;;0.70;0.70;;;;;;;;;;4982512;28;20217;-74
2024/04/04 04:15:56;;;;;;;0.77;0.77;;;;;;;;;;4982826;28;20704;-75
2024/04/04 04:18:21;;;;;;;0.70;0.70;;;;;;;;;;4996250;28;20216;-76
2024/04/04 04:23:31;;;;;;;0.77;0.77;;;;;;;;;;4982161;28;20657;-76
2024/04/04 04:25:58;;;;;;;0.73;0.73;;;;;;;;;;4983843;28;20214;-76
2024/04/04 04:28:23;;;;;;;0.70;0.70;;;;;;;;;;4982148;28;20874;-76
2024/04/04 04:30:51;;;;;;;0.70;0.70;;;;;;;;;;4983987;28;20205;-73
2024/04/04 04:33:18;;;;;;;0.70;0.70;;;;;;;;;;4980706;28;20205;-75
2024/04/04 04:35:44;;;;;;;0.70;0.70;;;;;;;;;;4979709;28;20205;-76
2024/04/04 04:38:09;;;;;;;0.70;0.70;;;;;;;;;;4982574;28;20535;-75
2024/04/04 04:40:37;;;;;;;0.70;0.70;;;;;;;;;;4984535;28;20655;-76
2024/04/04 04:43:02;;;;;;;0.70;0.70;;;;;;;;;;4980763;28;20791;-76
2024/04/04 04:45:29;;;;;;;0.70;0.70;;;;;;;;;;4982875;28;20231;-75
2024/04/04 04:47:54;;;;;;;0.70;0.70;;;;;;;;;;4982273;28;20205;-76
2024/04/04 04:50:22;;;;;;;0.70;0.70;;;;;;;;;;4984278;28;20643;-75
2024/04/04 04:52:48;;;;;;;0.70;0.70;;;;;;;;;;4990445;28;20224;-76
2024/04/04 04:55:15;;;;;;;0.70;0.70;;;;;;;;;;4981913;28;20618;-76
2024/04/04 04:57:40;;;;;;;0.75;0.75;;;;;;;;;;4981125;28;20220;-76
2024/04/04 05:00:11;;;;;;;0.73;0.73;;;;;;;;;;4981605;28;20663;-75
2024/04/04 05:02:37;;;;;;;0.70;0.70;;;;;;;;;;4980854;28;20201;-76
2024/04/04 05:05:12;;;;;;;0.70;0.70;;;;;;;;;;4977879;28;20734;-76
2024/04/04 05:07:39;;;;;;;0.80;0.80;;;;;;;;;;4980994;28;20196;-75
2024/04/04 05:10:06;;;;;;;0.70;0.70;;;;;;;;;;4982870;28;20702;-77
2024/04/04 05:12:32;;;;;;;0.70;0.70;;;;;;;;;;4980351;28;20252;-77
2024/04/04 05:14:59;;;;;;;0.70;0.70;;;;;;;;;;4981387;28;20718;-75
2024/04/04 05:17:24;;;;;;;0.70;0.70;;;;;;;;;;4980977;28;20219;-75
2024/04/04 05:19:51;;;;;;;0.70;0.70;;;;;;;;;;4980421;28;20628;-76
2024/04/04 05:22:16;;;;;;;0.90;0.90;;;;;;;;;;4982141;28;20224;-76
2024/04/04 05:24:44;;;;;;;0.60;0.60;;;;;;;;;;4982922;28;20587;-76
2024/04/04 05:27:10;;;;;;;0.70;0.70;;;;;;;;;;4985463;28;20217;-77
2024/04/04 05:29:36;;;;;;;0.80;0.80;;;;;;;;;;4986415;28;20220;-75
2024/04/04 05:32:01;;;;;;;0.75;0.75;;;;;;;;;;4986212;28;20217;-76
2024/04/04 05:34:28;;;;;;;0.70;0.70;;;;;;;;;;4982957;28;20220;-76
2024/04/04 05:36:53;;;;;;;0.77;0.77;;;;;;;;;;4981718;28;20205;-76
2024/04/04 05:39:20;;;;;;;0.70;0.70;;;;;;;;;;4982624;28;20213;-77
2024/04/04 05:41:48;;;;;;;0.75;0.75;;;;;;;;;;4986478;28;20219;-76
2024/04/04 05:44:14;;;;;;;0.70;0.70;;;;;;;;;;4982086;28;20232;-76
2024/04/04 05:46:40;;;;;;;0.70;0.70;;;;;;;;;;4981939;28;20221;-76
2024/04/04 05:49:06;;;;;;;0.70;0.70;;;;;;;;;;4992446;28;20205;-76
2024/04/04 05:51:32;;;;;;;0.70;0.70;;;;;;;;;;4978396;28;20220;-76
2024/04/04 05:53:59;;;;;;;0.80;0.80;;;;;;;;;;4985631;28;20205;-77
2024/04/04 05:56:24;;;;;;;0.70;0.70;;;;;;;;;;4981506;28;20286;-77
2024/04/04 05:58:52;;;;;;;0.70;0.70;;;;;;;;;;4980262;28;20348;-77
2024/04/04 06:01:17;;;;;;;0.70;0.70;;;;;;;;;;4982677;28;20227;-76
2024/04/04 06:03:44;;;;;;;0.70;0.70;;;;;;;;;;4979388;28;20546;-78
2024/04/04 06:06:09;;;;;;;0.70;0.70;;;;;;;;;;4980535;28;20209;-77
2024/04/04 06:08:35;;;;;;;0.70;0.70;;;;;;;;;;4982012;28;20209;-75
2024/04/04 06:11:01;;;;;;;0.63;0.63;;;;;;;;;;4980958;28;20828;-76
2024/04/04 06:13:28;;;;;;;0.70;0.70;;;;;;;;;;4982912;28;20205;-77
2024/04/04 06:15:55;;;;;;;0.70;0.70;;;;;;;;;;4982303;28;20217;-76
2024/04/04 06:18:22;;;;;;;0.80;0.80;;;;;;;;;;4979520;28;20217;-77
2024/04/04 06:20:47;;;;;;;0.70;0.70;;;;;;;;;;4978392;28;20217;-76
2024/04/04 06:23:14;;;;;;;0.70;0.70;;;;;;;;;;4977127;28;20216;-78
2024/04/04 06:25:39;;;;;;;0.80;0.80;;;;;;;;;;4982157;28;20205;-78
2024/04/04 06:28:05;;;;;;;0.80;0.80;;;;;;;;;;4981639;28;20209;-78
2024/04/04 06:30:32;;;;;;;0.70;0.70;;;;;;;;;;4982322;28;20209;-76
2024/04/04 06:33:00;;;;;;;0.70;0.70;;;;;;;;;;4979097;28;20205;-77
2024/04/04 06:35:25;;;;;;;0.70;0.70;;;;;;;;;;4978239;28;20209;-77
2024/04/04 06:37:51;;;;;;;0.70;0.70;;;;;;;;;;4984390;28;20221;-78
2024/04/04 06:40:17;;;;;;;0.70;0.70;;;;;;;;;;4980951;28;20223;-76
2024/04/04 06:42:43;;;;;;;0.70;0.70;;;;;;;;;;4981033;28;20918;-77
2024/04/04 06:45:09;;;;;;;0.70;0.70;;;;;;;;;;4979709;28;20257;-77
2024/04/04 06:47:40;;;;;;;0.80;0.80;;;;;;;;;;4982628;28;20241;-76
2024/04/04 06:50:09;;;;;;;0.70;0.70;;;;;;;;;;4986935;28;20217;-77
2024/04/04 06:52:34;;;;;;;0.70;0.70;;;;;;;;;;4990470;28;20209;-78
2024/04/04 06:55:02;;;;;;;0.70;0.70;;;;;;;;;;4991087;28;20228;-77
2024/04/04 06:57:28;;;;;;;0.80;0.80;;;;;;;;;;4989560;28;20263;-77
2024/04/04 06:59:54;;;;;;;0.70;0.70;;;;;;;;;;4992560;28;20328;-77
2024/04/04 07:02:20;;;;;;;0.70;0.70;;;;;;;;;;4988958;28;20209;-76
2024/04/04 07:04:46;;;;;;;0.80;0.80;;;;;;;;;;4982691;28;20236;-77
2024/04/04 07:07:13;;;;;;;0.70;0.70;;;;;;;;;;4982089;28;21077;-76
2024/04/04 07:09:40;;;;;;;0.80;0.80;;;;;;;;;;4987472;28;21029;-78
2024/04/04 07:12:05;;;;;;;0.77;0.77;;;;;;;;;;4985119;28;20746;-77
2024/04/04 07:14:32;;;;;;;0.70;0.70;;;;;;;;;;4987106;28;20208;-78
2024/04/04 07:16:57;;;;;;;0.70;0.70;;;;;;;;;;4982314;28;20216;-76
2024/04/04 07:19:24;;;;;;;0.70;0.70;;;;;;;;;;4989107;28;20209;-76
2024/04/04 07:21:50;;;;;;;0.70;0.70;;;;;;;;;;4983113;28;20217;-76
2024/04/04 07:24:18;;;;;;;0.80;0.80;;;;;;;;;;4985903;28;20235;-75
2024/04/04 07:26:48;;;;;;;0.75;0.75;;;;;;;;;;4981564;28;20210;-77
2024/04/04 07:29:14;;;;;;;0.70;0.70;;;;;;;;;;4984835;28;20210;-77
2024/04/04 07:31:40;;;;;;;0.70;0.70;;;;;;;;;;4983812;28;20301;-77
2024/04/04 07:34:07;;;;;;;0.80;0.80;;;;;;;;;;4982748;28;21145;-77
2024/04/04 07:36:32;;;;;;;0.70;0.70;;;;;;;;;;4980220;28;20302;-77
2024/04/04 07:38:58;;;;;;;0.70;0.70;;;;;;;;;;4983002;28;20296;-77
2024/04/04 07:41:25;;;;;;;0.70;0.70;;;;;;;;;;4983113;28;20681;-77
2024/04/04 07:43:51;;;;;;;0.70;0.70;;;;;;;;;;4982503;28;20232;-77
2024/04/04 07:46:17;;;;;;;0.70;0.70;;;;;;;;;;4982882;28;20548;-77
2024/04/04 07:48:44;;;;;;;0.70;0.70;;;;;;;;;;4989579;28;20717;-76
2024/04/04 07:51:10;;;;;;;0.70;0.70;;;;;;;;;;4977299;28;20659;-77
2024/04/04 07:53:36;;;;;;;0.70;0.70;;;;;;;;;;4983106;28;20243;-77
2024/04/04 07:56:02;;;;;;;0.80;0.80;;;;;;;;;;4982101;28;20698;-77
2024/04/04 07:58:30;;;;;;;0.70;0.70;;;;;;;;;;4981378;28;20411;-77
2024/04/04 08:00:56;;;;;;;0.70;0.70;;;;;;;;;;4982578;28;20214;-77
2024/04/04 08:03:23;;;;;;;0.80;0.80;;;;;;;;;;4982387;28;20216;-77
2024/04/04 08:05:48;;;;;;;0.70;0.70;;;;;;;;;;4978534;28;20848;-77
2024/04/04 08:08:15;;;;;;;0.70;0.70;;;;;;;;;;4983005;28;20224;-77
2024/04/04 08:10:40;;;;;;;0.70;0.70;;;;;;;;;;4983215;28;20285;-76
2024/04/04 08:13:06;;;;;;;0.70;0.70;;;;;;;;;;4983481;28;20325;-76
2024/04/04 08:15:34;;;;;;;0.70;0.70;;;;;;;;;;4978299;28;20216;-77
2024/04/04 08:18:00;;;;;;;0.73;0.73;;;;;;;;;;4978116;28;20792;-77
2024/04/04 08:20:26;;;;;;;0.80;0.80;;;;;;;;;;4977293;28;20256;-77
2024/04/04 08:22:53;;;;;;;0.70;0.70;;;;;;;;;;4979956;28;20209;-79
2024/04/04 08:25:20;;;;;;;0.70;0.70;;;;;;;;;;4979881;28;20294;-78
2024/04/04 08:27:47;;;;;;;0.73;0.73;;;;;;;;;;4978705;28;20815;-76
2024/04/04 08:30:12;;;;;;;0.70;0.70;;;;;;;;;;4980892;28;20217;-77
2024/04/04 08:32:40;;;;;;;0.70;0.70;;;;;;;;;;4982659;28;20953;-77
2024/04/04 08:35:07;;;;;;;0.80;0.80;;;;;;;;;;4979528;28;20212;-77
2024/04/04 08:37:33;;;;;;;0.73;0.73;;;;;;;;;;4979028;28;20209;-77
2024/04/04 08:39:59;;;;;;;0.70;0.70;;;;;;;;;;4978895;28;20945;-76
2024/04/04 08:42:27;;;;;;;2.25;1.88;;;;;;;;;;4980291;28;21376;-76
2024/04/04 08:44:52;;;;;;;0.70;0.70;;;;;;;;;;4979284;28;20235;-76
2024/04/04 08:47:20;;;;;;;0.70;0.70;;;;;;;;;;4977311;28;20580;-77
2024/04/04 08:49:48;;;;;;;0.70;0.70;;;;;;;;;;4992837;28;20296;-76
2024/04/04 08:52:14;;;;;;;0.70;0.70;;;;;;;;;;4978946;28;20877;-77
2024/04/04 08:54:40;;;;;;;0.70;0.70;;;;;;;;;;4982712;28;20209;-76
2024/04/04 08:57:08;;;;;;;0.73;0.73;;;;;;;;;;4976544;28;20219;-77
2024/04/04 08:59:33;;;;;;;0.68;0.68;;;;;;;;;;4983922;28;20249;-76
2024/04/04 09:02:00;;;;;;;0.70;0.70;;;;;;;;;;4986018;28;20225;-76
2024/04/04 09:04:26;;;;;;;0.60;0.60;;;;;;;;;;4978492;28;20229;-77
2024/04/04 09:06:53;;;;;;;0.70;0.70;;;;;;;;;;4978074;28;20224;-77
2024/04/04 09:09:20;;;;;;;0.80;0.80;;;;;;;;;;4980695;28;20558;-77
2024/04/04 09:11:46;;;;;;;0.80;0.80;;;;;;;;;;4978377;28;20762;-77
2024/04/04 09:14:15;;;;;;;0.70;0.70;;;;;;;;;;4981227;28;20208;-77
2024/04/04 09:16:40;;;;;;;0.70;0.70;;;;;;;;;;4980959;28;20213;-77
2024/04/04 09:19:13;;;;;;;0.70;0.70;;;;;;;;;;4967761;28;20220;-77
2024/04/04 09:21:40;;;;;;;0.80;0.80;;;;;;;;;;4969167;28;20387;-77
2024/04/04 09:24:09;;;;;;;0.80;0.80;;;;;;;;;;4974218;28;20245;-77
2024/04/04 09:26:35;;;;;;;3.40;2.15;;;;;;;;;;4975942;28;21199;-77
2024/04/04 09:29:03;;;;;;;0.70;0.70;;;;;;;;;;4974161;28;20306;-78
2024/04/04 09:31:30;;;;;;;0.70;0.70;;;;;;;;;;4975164;28;20209;-78
2024/04/04 09:33:57;;;;;;;0.70;0.70;;;;;;;;;;4970572;28;21565;-77
2024/04/04 09:36:24;;;;;;;0.70;0.70;;;;;;;;;;4975994;28;20798;-77
2024/04/04 09:38:52;;;;;;;0.70;0.70;;;;;;;;;;4974356;28;20216;-78
2024/04/04 09:41:19;;;;;;;0.70;0.70;;;;;;;;;;4974090;28;20267;-78
2024/04/04 09:43:45;;;;;;;0.70;0.70;;;;;;;;;;4974584;28;20339;-78
2024/04/04 09:46:11;;;;;;;0.70;0.70;;;;;;;;;;4975065;28;20231;-76
2024/04/04 09:48:38;;;;;;;0.70;0.70;;;;;;;;;;4986394;28;20213;-77
2024/04/04 09:51:06;;;;;;;0.80;0.80;;;;;;;;;;4974754;28;20213;-77
2024/04/04 09:53:31;;;;;;;0.70;0.70;;;;;;;;;;4975594;28;20223;-77
2024/04/04 09:55:58;;;;;;;0.70;0.70;;;;;;;;;;4974217;28;20742;-77
2024/04/04 09:58:25;;;;;;;0.80;0.80;;;;;;;;;;4970880;28;20245;-77
2024/04/04 10:00:51;;;;;;;0.80;0.80;;;;;;;;;;4973694;28;20210;-78
2024/04/04 10:03:22;;;;;;;0.70;0.70;;;;;;;;;;4973834;28;20954;-77
2024/04/04 10:05:49;;;;;;;0.70;0.70;;;;;;;;;;4970511;28;20225;-77
2024/04/04 10:08:14;;;;;;;1.33;1.33;;;;;;;;;;4974994;28;20217;-77
2024/04/04 10:10:42;;;;;;;0.73;0.73;;;;;;;;;;4970415;28;21000;-77
2024/04/04 10:13:08;;;;;;;0.70;0.70;;;;;;;;;;4971943;28;20363;-77
2024/04/04 10:15:43;;;;;;;1.95;1.25;;;;;;;;;;4972403;28;20201;-77
2024/04/04 10:18:10;;;;;;;0.70;0.70;;;;;;;;;;4976899;28;20206;-78
2024/04/04 10:20:37;;;;;;;0.70;0.70;;;;;;;;;;4969259;28;20722;-77
2024/04/04 10:23:05;;;;;;;0.70;0.70;;;;;;;;;;4975728;28;20709;-77
2024/04/04 10:25:31;;;;;;;0.75;0.75;;;;;;;;;;4969575;28;20237;-77
2024/04/04 10:28:00;;;;;;;0.80;0.80;;;;;;;;;;4974046;28;20879;-77
2024/04/04 10:30:27;;;;;;;0.80;0.80;;;;;;;;;;4974347;28;20244;-76
2024/04/04 10:33:04;;;;;;;0.70;0.70;;;;;;;;;;4974338;28;20784;-77
2024/04/04 10:35:30;;;;;;;0.70;0.70;;;;;;;;;;4971434;28;20825;-77
2024/04/04 10:38:04;;;;;;;0.70;0.70;;;;;;;;;;4976372;28;20217;-77
2024/04/04 10:40:31;;;;;;;0.70;0.70;;;;;;;;;;4975881;28;20654;-77
2024/04/04 10:42:56;;;;;;;0.70;0.70;;;;;;;;;;4985500;28;20794;-78
2024/04/04 10:45:23;;;;;;;0.70;0.70;;;;;;;;;;4963591;28;20229;-77
2024/04/04 10:47:54;;;;;;;0.70;0.70;;;;;;;;;;4974828;28;20220;-77
2024/04/04 10:50:21;;;;;;;0.70;0.70;;;;;;;;;;4981063;28;20528;-77
2024/04/04 10:52:47;;;;;;;0.70;0.70;;;;;;;;;;4976401;28;20205;-77
2024/04/04 10:55:13;;;;;;;0.70;0.70;;;;;;;;;;4976796;28;21243;-77
2024/04/04 10:57:40;;;;;;;0.70;0.70;;;;;;;;;;4975511;28;20216;-77
2024/04/04 11:00:11;;;;;;;0.80;0.80;;;;;;;;;;4974652;28;20220;-77
2024/04/04 11:02:37;;;;;;;0.70;0.70;;;;;;;;;;4978052;28;20209;-77
2024/04/04 11:05:07;;;;;;;0.70;0.70;;;;;;;;;;4971930;28;20287;-77
2024/04/04 11:07:38;;;;;;;0.80;0.80;;;;;;;;;;4974464;28;20720;-77
2024/04/04 11:10:03;;;;;;;0.90;0.90;;;;;;;;;;4975713;28;20834;-77
2024/04/04 11:12:32;;;;;;;0.70;0.70;;;;;;;;;;4975538;28;20209;-78
2024/04/04 11:15:01;;;;;;;0.70;0.70;;;;;;;;;;4976410;28;20434;-77
2024/04/04 11:17:30;;;;;;;0.70;0.70;;;;;;;;;;4975056;28;20210;-78
2024/04/04 11:20:05;;;;;;;0.70;0.70;;;;;;;;;;4971606;28;20213;-77
2024/04/04 11:22:31;;;;;;;0.70;0.70;;;;;;;;;;4973784;28;20235;-77
2024/04/04 11:24:57;;;;;;;0.70;0.70;;;;;;;;;;4978390;28;21091;-77
2024/04/04 11:27:23;;;;;;;0.70;0.70;;;;;;;;;;4974305;28;20205;-76
2024/04/04 11:29:49;;;;;;;0.70;0.70;;;;;;;;;;4973696;28;20403;-77
2024/04/04 11:32:15;;;;;;;0.70;0.70;;;;;;;;;;4974821;28;20221;-77
2024/04/04 11:34:40;;;;;;;0.70;0.70;;;;;;;;;;4973705;28;20216;-77
2024/04/04 11:37:09;;;;;;;0.70;0.70;;;;;;;;;;4975047;28;20212;-78
2024/04/04 11:39:34;;;;;;;0.70;0.70;;;;;;;;;;4976569;28;20298;-77
2024/04/04 11:42:01;;;;;;;0.70;0.70;;;;;;;;;;4973790;28;20814;-77
2024/04/04 11:44:26;;;;;;;0.70;0.70;;;;;;;;;;4978196;28;20336;-77
2024/04/04 11:46:53;;;;;;;0.70;0.70;;;;;;;;;;4974126;28;20210;-77
2024/04/04 11:49:19;;;;;;;0.70;0.70;;;;;;;;;;4989677;28;20215;-77
2024/04/04 11:51:45;;;;;;;0.70;0.70;;;;;;;;;;4973283;28;20236;-78
2024/04/04 11:54:12;;;;;;;0.70;0.70;;;;;;;;;;4974714;28;20217;-77
2024/04/04 11:56:40;;;;;;;0.80;0.80;;;;;;;;;;4975524;28;20213;-77
2024/04/04 11:59:05;;;;;;;0.70;0.70;;;;;;;;;;4974831;28;20244;-77
2024/04/04 12:01:32;;;;;;;0.70;0.70;;;;;;;;;;4975967;28;20301;-78
2024/04/04 12:03:57;;;;;;;0.75;0.75;;;;;;;;;;4971681;28;20221;-77
2024/04/04 12:06:24;;;;;;;0.70;0.70;;;;;;;;;;4974439;28;20233;-77
2024/04/04 12:08:50;;;;;;;0.70;0.70;;;;;;;;;;4972514;28;20223;-77
2024/04/04 12:11:17;;;;;;;0.80;0.80;;;;;;;;;;4969505;28;20552;-78
2024/04/04 12:13:44;;;;;;;0.70;0.70;;;;;;;;;;4972832;28;20221;-77
2024/04/04 12:16:09;;;;;;;0.70;0.70;;;;;;;;;;4975435;28;20221;-77
2024/04/04 12:21:19;;;;;;;0.80;0.80;;;;;;;;;;4973017;28;20239;-77
2024/04/04 12:23:45;;;;;;;0.70;0.70;;;;;;;;;;4973433;28;20214;-77
2024/04/04 12:26:12;;;;;;;0.80;0.80;;;;;;;;;;4975093;28;20232;-76
2024/04/04 12:28:39;;;;;;;0.70;0.70;;;;;;;;;;4972483;28;20209;-77
2024/04/04 12:31:06;;;;;;;0.70;0.70;;;;;;;;;;4972592;28;20237;-77
2024/04/04 12:33:31;;;;;;;0.70;0.70;;;;;;;;;;4976394;28;20236;-77
2024/04/04 12:35:57;;;;;;;0.70;0.70;;;;;;;;;;4972673;28;20209;-77
2024/04/04 12:38:23;;;;;;;0.80;0.80;;;;;;;;;;4973438;28;20314;-77
2024/04/04 12:40:52;;;;;;;0.70;0.70;;;;;;;;;;4974172;28;20250;-77
2024/04/04 12:43:19;;;;;;;0.70;0.70;;;;;;;;;;4970540;28;20217;-76
2024/04/04 12:45:47;;;;;;;0.70;0.70;;;;;;;;;;4972487;28;20265;-77
2024/04/04 12:48:12;;;;;;;0.70;0.70;;;;;;;;;;4974961;28;21275;-77
2024/04/04 12:50:39;;;;;;;0.60;0.60;;;;;;;;;;4982362;28;20278;-77
2024/04/04 12:53:04;;;;;;;0.70;0.70;;;;;;;;;;4973219;28;21118;-77
2024/04/04 12:55:30;;;;;;;0.70;0.70;;;;;;;;;;4976145;28;20368;-77
2024/04/04 12:57:56;;;;;;;0.60;0.60;;;;;;;;;;4971583;28;20251;-77
2024/04/04 13:00:22;;;;;;;0.70;0.70;;;;;;;;;;4974697;28;21126;-77
2024/04/04 13:02:49;;;;;;;0.80;0.80;;;;;;;;;;4972008;28;21510;-77
2024/04/04 13:05:16;;;;;;;0.70;0.70;;;;;;;;;;4969324;28;20327;-77
2024/04/04 13:07:42;;;;;;;0.70;0.70;;;;;;;;;;4972371;28;20217;-77
2024/04/04 13:10:08;;;;;;;0.70;0.70;;;;;;;;;;4975270;28;21279;-78
2024/04/04 13:12:34;;;;;;;0.80;0.80;;;;;;;;;;4972865;28;20223;-77
2024/04/04 13:15:01;;;;;;;0.70;0.70;;;;;;;;;;4975597;28;20550;-78
2024/04/04 13:17:26;;;;;;;0.75;0.75;;;;;;;;;;4974846;28;20217;-77
2024/04/04 13:19:55;;;;;;;0.70;0.70;;;;;;;;;;4972414;28;20215;-78
2024/04/04 13:22:22;;;;;;;0.70;0.70;;;;;;;;;;4968553;28;20591;-77
2024/04/04 13:24:48;;;;;;;0.70;0.70;;;;;;;;;;4969538;28;20244;-77
2024/04/04 13:27:14;;;;;;;0.70;0.70;;;;;;;;;;4970570;28;22945;-77
2024/04/04 13:29:40;;;;;;;0.70;0.70;;;;;;;;;;4970971;28;20521;-77
2024/04/04 13:32:06;;;;;;;0.80;0.80;;;;;;;;;;4967494;28;20217;-77
2024/04/04 13:34:32;;;;;;;0.80;0.80;;;;;;;;;;4970753;28;20244;-77
2024/04/04 13:36:59;;;;;;;0.65;0.65;;;;;;;;;;4968486;28;20296;-78
2024/04/04 13:39:26;;;;;;;0.70;0.70;;;;;;;;;;4970570;28;22627;-76
2024/04/04 13:41:51;;;;;;;0.70;0.70;;;;;;;;;;4968865;28;20217;-77
2024/04/04 13:44:19;;;;;;;0.70;0.70;;;;;;;;;;4970985;28;20818;-77
2024/04/04 13:46:45;;;;;;;0.70;0.70;;;;;;;;;;4969520;28;20233;-77
2024/04/04 13:49:14;;;;;;;3.15;2.97;;;;;;;;;;4971319;28;20542;-77
2024/04/04 13:51:39;;;;;;;0.70;0.70;;;;;;;;;;4979153;28;20219;-77
2024/04/04 13:54:07;;;;;;;0.60;0.60;;;;;;;;;;4971749;28;20209;-77
2024/04/04 13:56:34;;;;;;;0.70;0.70;;;;;;;;;;4971346;28;20762;-77
2024/04/04 13:58:59;;;;;;;0.70;0.70;;;;;;;;;;4969666;28;20809;-77
2024/04/04 14:01:31;;;;;;;0.70;0.70;;;;;;;;;;4972377;28;20209;-77
2024/04/04 14:03:56;;;;;;;0.70;0.70;;;;;;;;;;4968239;28;20329;-77
2024/04/04 14:06:23;;;;;;;0.70;0.70;;;;;;;;;;4970253;28;20236;-78
2024/04/04 14:08:49;;;;;;;0.70;0.70;;;;;;;;;;4972075;28;20223;-77
2024/04/04 14:11:17;;;;;;;0.70;0.70;;;;;;;;;;4973384;28;20217;-77
2024/04/04 14:13:42;;;;;;;0.60;0.60;;;;;;;;;;4968621;28;20316;-77
2024/04/04 14:16:10;;;;;;;0.68;0.68;;;;;;;;;;4972482;28;20250;-77
2024/04/04 14:18:35;;;;;;;0.70;0.70;;;;;;;;;;4970260;28;20213;-77
2024/04/04 14:21:01;;;;;;;0.70;0.70;;;;;;;;;;4971297;28;20251;-77
2024/04/04 14:23:27;;;;;;;0.70;0.70;;;;;;;;;;4974654;28;20871;-77
2024/04/04 14:25:53;;;;;;;0.60;0.60;;;;;;;;;;4972223;28;20244;-77
2024/04/04 14:28:20;;;;;;;0.60;0.60;;;;;;;;;;4969324;28;20217;-77
2024/04/04 14:30:46;;;;;;;0.70;0.70;;;;;;;;;;4970828;28;21454;-77
2024/04/04 14:33:12;;;;;;;0.70;0.70;;;;;;;;;;4967110;28;20229;-77
2024/04/04 14:35:38;;;;;;;0.63;0.63;;;;;;;;;;4971145;28;20221;-77
2024/04/04 14:38:04;;;;;;;0.70;0.70;;;;;;;;;;4970292;28;20221;-77
2024/04/04 14:40:30;;;;;;;0.85;0.85;;;;;;;;;;4969652;28;20213;-78
2024/04/04 14:42:55;;;;;;;0.70;0.70;;;;;;;;;;4970271;28;20217;-78
2024/04/04 14:45:23;;;;;;;0.60;0.60;;;;;;;;;;4980446;28;20378;-77